Time;durP1;ratioP1;P1;durP2;ratioP2;P2;SDS_P1;SDS_P2;PMS_P1;PMS_P2;Temp;Humidity;BMP_temperature;BMP_pressure;BME280_temperature;BME280_humidity;BME280_pressure;Samples;Min_cycle;Max_cycle;Signal;HPM_P1;HPM_P2
2023/02/02 00:00:15;;;;;;;5.67;1.90;;;;;;;5.40;64.90;96001.25;6034704;23;20304;-82
2023/02/02 00:02:41;;;;;;;3.23;1.57;;;;;;;5.38;64.85;95999.78;6062292;23;20209;-82
2023/02/02 00:05:10;;;;;;;5.43;2.00;;;;;;;5.41;64.63;96002.03;6066340;23;20828;-82
2023/02/02 00:07:36;;;;;;;8.40;2.50;;;;;;;5.36;64.90;96005.03;6066802;23;20172;-82
2023/02/02 00:10:04;;;;;;;3.60;1.60;;;;;;;5.39;65.13;95997.06;6065498;23;20232;-82
2023/02/02 00:12:31;;;;;;;4.20;1.90;;;;;;;5.37;65.28;95987.97;6067076;23;20629;-82
2023/02/02 00:14:58;;;;;;;3.57;1.67;;;;;;;5.27;65.67;95987.94;6066952;23;20213;-82
2023/02/02 00:17:24;;;;;;;3.10;1.87;;;;;;;5.36;64.98;96002.47;6068406;23;20184;-82
2023/02/02 00:19:50;;;;;;;2.97;1.50;;;;;;;5.40;65.26;95992.78;6066692;23;20213;-82
2023/02/02 00:22:17;;;;;;;3.27;1.43;;;;;;;5.40;65.00;96002.97;6050825;23;20209;-82
2023/02/02 00:24:43;;;;;;;5.60;1.70;;;;;;;5.40;65.38;96016.56;6065895;23;20209;-82
2023/02/02 00:27:11;;;;;;;4.30;1.73;;;;;;;5.39;65.07;96002.19;6067376;23;20185;-82
2023/02/02 00:29:38;;;;;;;3.80;1.77;;;;;;;5.40;65.56;96002.97;6036456;23;20222;-82
2023/02/02 00:32:05;;;;;;;4.03;1.87;;;;;;;5.39;65.38;95986.84;6012946;23;20220;-82
2023/02/02 00:34:32;;;;;;;5.80;1.97;;;;;;;5.39;66.11;95993.72;6065865;23;20208;-82
2023/02/02 00:36:58;;;;;;;3.40;1.57;;;;;;;5.32;66.00;95990.91;6050244;23;20680;-81
2023/02/02 00:39:25;;;;;;;6.80;1.70;;;;;;;5.30;66.51;95974.09;6065422;23;20209;-82
2023/02/02 00:41:52;;;;;;;5.43;1.73;;;;;;;5.24;66.47;95987.41;6065232;23;20589;-82
2023/02/02 00:47:04;;;;;;;9.50;3.07;;;;;;;5.29;67.13;95987.81;6036527;23;20224;-82
2023/02/02 00:49:31;;;;;;;5.43;2.03;;;;;;;5.29;67.22;95983.50;6066088;23;20208;-82
2023/02/02 00:51:57;;;;;;;2.93;1.90;;;;;;;5.34;67.57;95985.66;6066776;23;20664;-82
2023/02/02 00:54:24;;;;;;;5.23;1.93;;;;;;;5.41;67.85;95999.50;6066429;23;20281;-82
2023/02/02 00:56:50;;;;;;;4.77;1.70;;;;;;;5.28;68.64;95994.66;6066966;23;20184;-82
2023/02/02 00:59:17;;;;;;;4.90;1.60;;;;;;;5.23;69.37;96001.91;6066058;23;20208;-82
2023/02/02 01:01:45;;;;;;;4.57;1.80;;;;;;;5.14;70.32;95995.88;6066355;23;20201;-82
2023/02/02 01:04:11;;;;;;;5.03;1.73;;;;;;;5.08;71.56;96009.16;6065190;23;20205;-82
2023/02/02 01:06:37;;;;;;;4.43;2.27;;;;;;;5.11;72.03;95987.66;6066345;23;20177;-82
2023/02/02 01:09:04;;;;;;;3.17;1.90;;;;;;;5.07;72.18;95982.00;6065688;23;20208;-82
2023/02/02 01:11:32;;;;;;;7.37;1.90;;;;;;;4.93;72.41;95994.34;6065657;23;20201;-82
2023/02/02 01:13:59;;;;;;;8.03;2.30;;;;;;;4.93;72.63;95984.97;6066068;23;20209;-82
2023/02/02 01:16:25;;;;;;;8.07;2.07;;;;;;;4.94;72.83;96014.63;6066340;23;20207;-82
2023/02/02 01:18:53;;;;;;;4.50;1.80;;;;;;;4.88;72.81;95981.19;6065342;23;20213;-82
2023/02/02 01:21:20;;;;;;;3.50;1.87;;;;;;;4.97;72.80;95988.06;6065999;23;20204;-82
2023/02/02 01:23:47;;;;;;;6.20;2.03;;;;;;;4.98;72.96;95982.81;6066834;23;20216;-81
2023/02/02 01:26:15;;;;;;;8.27;2.10;;;;;;;4.99;73.21;95999.75;6067010;23;20177;-82
2023/02/02 01:28:42;;;;;;;3.43;1.90;;;;;;;5.05;73.01;95991.53;6066384;23;20201;-82
2023/02/02 01:31:11;;;;;;;5.03;1.77;;;;;;;5.06;72.63;95987.25;6065930;23;20271;-81
2023/02/02 01:33:38;;;;;;;3.67;1.63;;;;;;;5.00;72.69;95975.03;6065464;23;20205;-82
2023/02/02 01:36:09;;;;;;;7.00;1.97;;;;;;;4.98;71.52;95984.56;6066022;23;20181;-82
2023/02/02 01:38:36;;;;;;;6.97;2.03;;;;;;;5.01;71.64;95959.56;6065306;23;20217;-82
2023/02/02 01:41:03;;;;;;;4.13;1.50;;;;;;;5.06;71.27;95980.41;6066472;23;20201;-82
2023/02/02 01:43:51;;;;;;;4.80;2.37;;;;;;;5.04;71.01;95984.03;6067341;23;20799;-82
2023/02/02 01:46:19;;;;;;;7.63;2.20;;;;;;;5.08;70.94;95970.06;6037749;23;20261;-82
2023/02/02 01:48:48;;;;;;;2.93;1.73;;;;;;;5.08;70.95;95967.50;6068034;23;20264;-82
2023/02/02 01:51:20;;;;;;;5.90;1.87;;;;;;;5.02;71.01;95966.28;6051902;23;20224;-82
2023/02/02 01:53:49;;;;;;;4.43;1.60;;;;;;;4.95;71.35;95956.75;6067475;23;20288;-82
2023/02/02 01:56:20;;;;;;;5.13;1.90;;;;;;;4.97;71.10;95947.22;6068385;23;20183;-82
2023/02/02 01:58:47;;;;;;;4.43;2.07;;;;;;;5.09;70.89;95982.69;6067922;23;20212;-82
2023/02/02 02:01:14;;;;;;;3.53;1.63;;;;;;;5.08;70.64;95967.50;6068602;23;20197;-82
2023/02/02 02:03:41;;;;;;;3.90;1.70;;;;;;;5.04;70.53;95978.91;6067839;23;20213;-82
2023/02/02 02:06:10;;;;;;;5.13;1.73;;;;;;;4.93;70.94;95962.00;6068486;23;20176;-82
2023/02/02 02:08:42;;;;;;;6.97;2.10;;;;;;;4.98;71.13;95964.16;6067666;23;20201;-81
2023/02/02 02:11:08;;;;;;;6.30;2.30;;;;;;;5.00;70.90;95952.88;6067481;23;20193;-82
2023/02/02 02:16:29;;;;;;;6.30;1.80;;;;;;;5.02;71.03;95955.28;6051658;23;20203;-82
2023/02/02 02:19:09;;;;;;;7.90;1.93;;;;;;;5.08;70.63;95957.31;6065960;23;20740;-82
2023/02/02 02:28:36;;;;;;;5.73;2.10;;;;;;;5.00;70.87;95959.72;6066986;23;20218;-81
2023/02/02 02:31:47;;;;;;;6.30;2.33;;;;;;;5.01;70.44;95946.81;6044647;23;20426;-81
2023/02/02 02:34:20;;;;;;;5.33;2.20;;;;;;;4.96;70.33;95933.66;6067748;23;20722;-81
2023/02/02 02:36:54;;;;;;;7.07;2.20;;;;;;;5.04;70.34;95954.22;6067965;23;20176;-81
2023/02/02 02:39:27;;;;;;;6.10;2.13;;;;;;;5.14;70.44;95957.59;6067490;23;20220;-80
2023/02/02 02:42:00;;;;;;;5.13;1.87;;;;;;;5.11;69.73;95941.72;6035392;23;20217;-81
2023/02/02 02:44:29;;;;;;;4.70;2.00;;;;;;;5.11;70.19;95944.28;6065993;23;20219;-81
2023/02/02 02:46:57;;;;;;;5.37;1.93;;;;;;;5.15;69.93;95943.06;6052104;23;20209;-81
2023/02/02 02:49:23;;;;;;;4.07;1.97;;;;;;;5.18;69.66;95935.16;6066248;23;20747;-81
2023/02/02 02:51:51;;;;;;;4.70;1.73;;;;;;;5.13;69.50;95944.97;6067200;23;20208;-81
2023/02/02 02:54:21;;;;;;;4.30;1.90;;;;;;;5.16;69.77;95954.91;6066459;23;20346;-81
2023/02/02 02:57:12;;;;;;;7.33;2.17;;;;;;;5.25;69.48;95954.09;6067297;23;20166;-81
2023/02/02 02:59:47;;;;;;;4.00;1.67;;;;;;;5.17;69.36;95952.22;6066345;23;20232;-81
2023/02/02 03:02:28;;;;;;;6.97;1.90;;;;;;;5.15;70.02;95964.31;6066866;23;20161;-81
2023/02/02 03:05:07;;;;;;;5.87;2.10;;;;;;;5.15;69.89;95958.41;6066795;23;20292;-81
2023/02/02 03:07:41;;;;;;;6.77;2.03;;;;;;;5.04;69.97;95964.41;6067291;23;20172;-80
2023/02/02 03:10:12;;;;;;;7.17;2.30;;;;;;;5.06;70.22;95948.97;6067224;23;20200;-81
2023/02/02 03:12:44;;;;;;;4.20;2.10;;;;;;;5.13;70.25;95950.88;6051930;23;20208;-81
2023/02/02 03:15:11;;;;;;;5.53;1.93;;;;;;;5.16;70.40;95965.13;6067582;23;20181;-81
2023/02/02 03:17:40;;;;;;;4.13;2.30;;;;;;;5.19;70.91;95947.78;6068031;23;20188;-81
2023/02/02 03:20:07;;;;;;;5.43;1.80;;;;;;;5.16;71.27;95954.91;6067268;23;20211;-81
2023/02/02 03:22:33;;;;;;;3.30;1.73;;;;;;;5.13;71.15;95934.75;6067861;23;20177;-81
2023/02/02 03:25:00;;;;;;;6.80;2.03;;;;;;;5.14;71.48;95954.22;6066154;23;20209;-80
2023/02/02 03:27:27;;;;;;;3.97;1.90;;;;;;;5.17;71.38;95969.28;6051511;23;20224;-81
2023/02/02 03:29:54;;;;;;;6.13;1.80;;;;;;;5.11;72.27;95955.28;6066281;23;20209;-81
2023/02/02 03:32:21;;;;;;;8.73;2.70;;;;;;;5.14;73.57;95972.91;6066674;23;20177;-80
2023/02/02 03:34:49;;;;;;;5.13;1.90;;;;;;;5.05;75.46;95968.56;6065930;23;20216;-81
2023/02/02 03:37:15;;;;;;;6.63;2.00;;;;;;;4.97;76.49;95968.44;6066652;23;20187;-81
2023/02/02 03:39:42;;;;;;;5.67;1.93;;;;;;;4.89;77.22;95972.59;6065427;23;20869;-81
2023/02/02 03:42:08;;;;;;;4.63;2.23;;;;;;;4.82;77.56;95952.69;6065818;23;20177;-80
2023/02/02 03:44:34;;;;;;;7.63;2.57;;;;;;;4.91;77.05;95961.31;6066204;23;20563;-80
2023/02/02 03:47:01;;;;;;;5.20;1.80;;;;;;;4.97;76.81;95952.34;6066728;23;20661;-81
2023/02/02 03:49:27;;;;;;;5.30;1.83;;;;;;;4.97;76.38;95965.09;6065810;23;20208;-80
2023/02/02 03:51:55;;;;;;;3.67;1.70;;;;;;;4.87;75.42;95965.06;6068698;23;20677;-80
2023/02/02 03:54:21;;;;;;;4.97;1.83;;;;;;;4.94;74.99;95975.56;6067394;23;20212;-81
2023/02/02 03:56:48;;;;;;;3.67;1.80;;;;;;;4.89;75.15;95965.75;6067071;23;20183;-81
2023/02/02 03:59:14;;;;;;;3.50;1.80;;;;;;;4.98;74.61;95982.03;6066731;23;20213;-80
2023/02/02 04:01:41;;;;;;;3.37;1.57;;;;;;;4.98;75.18;95966.72;6066252;23;20212;-80
2023/02/02 04:04:07;;;;;;;4.63;2.00;;;;;;;4.95;75.01;95949.09;6066095;23;20212;-80
2023/02/02 04:06:33;;;;;;;6.30;2.20;;;;;;;5.02;74.83;95976.50;6067035;23;20200;-80
2023/02/02 04:09:01;;;;;;;6.80;2.17;;;;;;;5.02;74.72;95966.28;6066455;23;20212;-80
2023/02/02 04:11:28;;;;;;;3.77;2.17;;;;;;;4.91;75.30;95960.50;6050630;23;20208;-80
2023/02/02 04:13:54;;;;;;;4.20;1.90;;;;;;;5.04;75.00;95981.47;6066522;23;20672;-80
2023/02/02 04:16:20;;;;;;;6.13;2.20;;;;;;;5.11;74.75;95970.59;6066731;23;20184;-81
2023/02/02 04:18:47;;;;;;;3.00;1.57;;;;;;;5.13;74.32;95993.44;6064672;23;21044;-80
2023/02/02 04:21:13;;;;;;;3.87;1.90;;;;;;;5.14;74.26;95967.78;6065742;23;20200;-80
2023/02/02 04:23:39;;;;;;;4.27;1.87;;;;;;;5.06;74.51;95977.84;6065632;23;20213;-80
2023/02/02 04:26:07;;;;;;;4.40;1.73;;;;;;;5.19;74.09;95980.16;6066657;23;20177;-80
2023/02/02 04:28:35;;;;;;;5.80;2.00;;;;;;;5.20;74.10;95979.19;6067416;23;20263;-81
2023/02/02 04:31:01;;;;;;;4.20;1.80;;;;;;;5.20;73.90;95963.88;6066284;23;20201;-80
2023/02/02 04:33:28;;;;;;;6.07;1.73;;;;;;;5.07;74.69;95979.47;6066922;23;20212;-80
2023/02/02 04:35:55;;;;;;;2.97;1.83;;;;;;;5.12;75.86;95987.53;6067533;23;20180;-80
2023/02/02 04:38:21;;;;;;;5.50;2.03;;;;;;;5.10;76.55;95980.94;6065587;23;20200;-80
2023/02/02 04:40:48;;;;;;;5.53;1.90;;;;;;;5.18;76.76;95979.34;6064884;23;20260;-80
2023/02/02 04:43:16;;;;;;;2.87;1.80;;;;;;;5.16;75.67;95981.22;6065720;23;20677;-80
2023/02/02 04:45:43;;;;;;;2.33;1.67;;;;;;;5.02;75.07;95973.13;6050186;23;20224;-80
2023/02/02 04:48:10;;;;;;;4.57;1.90;;;;;;;5.06;74.74;95974.50;6065896;23;20399;-80
2023/02/02 04:50:37;;;;;;;4.80;2.00;;;;;;;5.10;74.46;95968.19;6067364;23;20215;-81
2023/02/02 04:53:03;;;;;;;3.37;1.83;;;;;;;5.19;74.24;95978.41;6066821;23;20700;-80
2023/02/02 04:55:30;;;;;;;6.23;2.23;;;;;;;5.16;73.94;95986.34;6066237;23;20177;-81
2023/02/02 04:57:56;;;;;;;4.47;1.60;;;;;;;5.22;73.86;95980.69;6067653;23;20180;-81
2023/02/02 05:00:24;;;;;;;6.43;2.03;;;;;;;5.24;73.46;95995.88;6068076;23;20208;-80
2023/02/02 05:02:50;;;;;;;5.53;1.90;;;;;;;5.19;73.78;95982.72;6069529;23;20181;-80
2023/02/02 05:05:19;;;;;;;5.20;1.90;;;;;;;5.16;73.49;95982.97;6069452;23;20192;-81
2023/02/02 05:07:45;;;;;;;3.03;1.70;;;;;;;5.07;73.84;95987.13;6067927;23;20600;-80
2023/02/02 05:10:12;;;;;;;3.63;1.70;;;;;;;5.12;74.32;95997.75;6067056;23;20205;-81
2023/02/02 05:12:38;;;;;;;3.67;1.63;;;;;;;5.24;73.90;95995.06;6068150;23;20177;-80
2023/02/02 05:15:05;;;;;;;7.17;1.87;;;;;;;5.26;73.61;95988.88;6053024;23;20215;-81
2023/02/02 05:17:33;;;;;;;6.70;1.90;;;;;;;5.37;73.12;95990.50;6069317;23;20183;-80
2023/02/02 05:20:00;;;;;;;4.90;1.80;;;;;;;5.36;73.17;96016.97;6068082;23;20227;-80
2023/02/02 05:22:26;;;;;;;4.17;1.83;;;;;;;5.29;72.95;96000.56;6069078;23;20193;-81
2023/02/02 05:24:52;;;;;;;4.97;1.77;;;;;;;5.37;72.75;96005.84;6067863;23;20215;-81
2023/02/02 05:27:19;;;;;;;4.30;1.80;;;;;;;5.40;72.87;96001.25;6068993;23;20177;-82
2023/02/02 05:29:47;;;;;;;3.23;1.90;;;;;;;5.44;73.44;96006.88;6067928;23;20715;-81
2023/02/02 05:32:13;;;;;;;5.30;1.73;;;;;;;5.40;73.24;96008.09;6068848;23;20176;-81
2023/02/02 05:34:41;;;;;;;3.27;1.50;;;;;;;5.42;73.18;96001.09;6068557;23;20785;-82
2023/02/02 05:37:07;;;;;;;4.07;1.87;;;;;;;5.42;73.23;96001.09;6070839;23;20184;-82
2023/02/02 05:39:33;;;;;;;3.73;1.87;;;;;;;5.38;74.13;95992.94;6069370;23;20215;-82
2023/02/02 05:42:00;;;;;;;4.83;1.63;;;;;;;5.33;74.49;96007.84;6069934;23;20205;-82
2023/02/02 05:44:26;;;;;;;3.13;1.77;;;;;;;5.22;74.46;96005.41;6069860;23;20495;-82
2023/02/02 05:46:53;;;;;;;5.33;1.70;;;;;;;5.27;74.55;96010.13;6070252;23;20184;-81
2023/02/02 05:49:19;;;;;;;3.23;1.60;;;;;;;5.30;75.42;96004.75;6070556;23;20208;-82
2023/02/02 05:51:50;;;;;;;5.13;1.83;;;;;;;5.24;75.79;96003.53;6072723;23;20200;-82
2023/02/02 05:54:19;;;;;;;2.93;1.47;;;;;;;5.26;75.75;96018.72;6070225;23;20235;-82
2023/02/02 05:56:46;;;;;;;3.47;1.50;;;;;;;5.22;75.24;95993.44;6073701;23;20176;-81
2023/02/02 05:59:12;;;;;;;3.67;1.40;;;;;;;5.17;74.85;96027.97;6073587;23;20208;-82
2023/02/02 06:01:39;;;;;;;4.50;1.87;;;;;;;5.18;74.60;95999.78;6073493;23;20201;-82
2023/02/02 06:04:13;;;;;;;5.50;1.93;;;;;;;5.21;74.63;96004.59;6073778;23;20208;-82
2023/02/02 06:06:43;;;;;;;4.00;1.37;;;;;;;5.30;74.06;96013.22;6057482;23;20583;-84
2023/02/02 06:09:11;;;;;;;3.83;1.53;;;;;;;5.36;74.04;96014.44;6072784;23;20209;-81
2023/02/02 06:11:38;;;;;;;4.40;1.27;;;;;;;5.27;74.35;95987.94;6074250;23;20209;-83
2023/02/02 06:14:04;;;;;;;4.97;1.47;;;;;;;5.26;74.48;96016.16;6070144;23;20205;-82
2023/02/02 06:16:31;;;;;;;4.57;1.50;;;;;;;5.22;75.07;96010.50;6074213;23;20181;-82
2023/02/02 06:18:57;;;;;;;2.50;1.43;;;;;;;5.19;75.10;96029.47;6074378;23;20208;-82
2023/02/02 06:21:37;;;;;;;3.57;1.53;;;;;;;5.25;74.86;96015.34;6058449;23;20215;-83
2023/02/02 06:24:04;;;;;;;2.50;1.63;;;;;;;5.26;74.89;96027.19;6072356;23;20208;-82
2023/02/02 06:26:31;;;;;;;3.47;1.73;;;;;;;5.30;74.44;96020.88;6072977;23;20200;-81
2023/02/02 06:28:58;;;;;;;2.47;1.67;;;;;;;5.27;74.57;96010.13;6071554;23;20232;-82
2023/02/02 06:31:24;;;;;;;4.10;1.57;;;;;;;5.29;74.39;95998.84;6070825;23;20197;-82
2023/02/02 06:33:54;;;;;;;3.30;1.57;;;;;;;5.26;74.49;96008.50;6070954;23;20815;-82
2023/02/02 06:36:22;;;;;;;4.03;1.60;;;;;;;5.26;74.70;96003.38;6073370;23;20177;-82
2023/02/02 06:38:50;;;;;;;4.53;1.60;;;;;;;5.28;75.00;96009.16;6072002;23;20209;-82
2023/02/02 06:41:16;;;;;;;4.17;2.83;;;;;;;5.33;74.53;96009.59;6070830;23;20208;-82
2023/02/02 06:43:44;;;;;;;5.63;3.13;;;;;;;5.35;74.16;96005.16;6071355;23;20204;-82
2023/02/02 06:46:10;;;;;;;3.87;1.60;;;;;;;5.39;74.15;96009.84;6063346;23;20208;-82
2023/02/02 06:48:37;;;;;;;2.10;1.53;;;;;;;5.36;74.08;96043.31;6077406;23;20211;-82
2023/02/02 06:51:04;;;;;;;3.47;1.60;;;;;;;5.38;74.28;96022.78;6077845;23;20193;-82
2023/02/02 06:53:32;;;;;;;3.87;1.80;;;;;;;5.37;74.29;96028.81;6078965;23;20200;-83
2023/02/02 06:56:00;;;;;;;3.97;1.63;;;;;;;5.30;74.44;96031.09;6078498;23;20217;-82
2023/02/02 06:58:27;;;;;;;3.33;1.40;;;;;;;5.30;74.70;96041.28;6078507;23;20208;-82
2023/02/02 07:00:54;;;;;;;3.80;1.63;;;;;;;5.36;74.67;96045.06;6079928;23;20233;-82
2023/02/02 07:03:22;;;;;;;6.20;2.00;;;;;;;5.32;74.95;96072.59;6080659;23;20212;-82
2023/02/02 07:05:49;;;;;;;5.13;1.73;;;;;;;5.21;75.55;96032.66;6079226;23;20181;-82
2023/02/02 07:08:15;;;;;;;3.97;1.73;;;;;;;5.19;75.30;96046.53;6075221;23;20205;-83
2023/02/02 07:10:43;;;;;;;2.60;1.33;;;;;;;5.18;75.30;96035.50;6076357;23;20193;-82
2023/02/02 07:13:09;;;;;;;4.83;2.00;;;;;;;5.25;75.13;96047.72;6074075;23;20607;-82
2023/02/02 07:15:38;;;;;;;4.30;1.83;;;;;;;5.24;75.24;96041.81;6075105;23;20184;-83
2023/02/02 07:18:07;;;;;;;5.67;1.60;;;;;;;5.27;75.22;96056.06;6075497;23;20696;-83
2023/02/02 07:20:35;;;;;;;2.30;1.60;;;;;;;5.22;75.26;96049.59;6060981;23;20727;-83
2023/02/02 07:23:03;;;;;;;3.50;2.27;;;;;;;5.30;75.06;96041.28;6075999;23;20205;-83
2023/02/02 07:25:29;;;;;;;5.77;1.80;;;;;;;5.29;75.25;96055.00;6075710;23;20260;-83
2023/02/02 07:27:56;;;;;;;4.23;1.87;;;;;;;5.30;75.11;96066.81;6076768;23;20185;-83
2023/02/02 07:30:24;;;;;;;3.43;1.50;;;;;;;5.32;75.01;96061.59;6075754;23;20236;-83
2023/02/02 07:32:51;;;;;;;4.17;2.57;;;;;;;5.31;74.94;96076.09;6075252;23;20177;-83
2023/02/02 07:35:18;;;;;;;3.07;1.67;;;;;;;5.34;75.51;96065.63;6059530;23;20209;-83
2023/02/02 07:37:51;;;;;;;5.67;1.90;;;;;;;5.36;75.79;96083.38;6074594;23;20191;-82
2023/02/02 07:40:18;;;;;;;2.73;1.60;;;;;;;5.39;76.04;96083.06;6059728;23;20272;-83
2023/02/02 07:42:46;;;;;;;3.13;1.60;;;;;;;5.43;75.75;96092.09;6074680;23;20177;-82
2023/02/02 07:45:12;;;;;;;4.90;2.00;;;;;;;5.35;75.97;96076.66;6075558;23;20173;-83
2023/02/02 07:47:39;;;;;;;2.57;1.43;;;;;;;5.35;76.25;96084.31;6075763;23;20181;-83
2023/02/02 07:50:06;;;;;;;3.70;1.90;;;;;;;5.36;76.91;96080.81;6073107;23;20532;-83
2023/02/02 07:52:33;;;;;;;3.50;2.07;;;;;;;5.35;77.16;96086.84;6073947;23;20177;-83
2023/02/02 07:55:00;;;;;;;4.43;1.90;;;;;;;5.40;76.72;96097.47;6074920;23;20215;-83
2023/02/02 07:57:26;;;;;;;2.80;1.67;;;;;;;5.41;77.45;96097.31;6075489;23;20181;-83
2023/02/02 07:59:53;;;;;;;4.33;1.93;;;;;;;5.37;77.82;96105.41;6075695;23;20224;-83
2023/02/02 08:02:19;;;;;;;3.73;2.00;;;;;;;5.36;78.35;96108.91;6076505;23;20197;-83
2023/02/02 08:04:46;;;;;;;4.23;1.80;;;;;;;5.31;79.22;96093.16;6077575;23;20208;-83
2023/02/02 08:07:12;;;;;;;4.27;2.10;;;;;;;5.33;79.20;96119.38;6045308;23;20286;-83
2023/02/02 08:09:45;;;;;;;3.47;1.90;;;;;;;5.45;79.07;96100.44;6071057;23;20402;-82
2023/02/02 08:12:12;;;;;;;3.30;1.90;;;;;;;5.41;78.18;96120.31;6075037;23;20169;-83
2023/02/02 08:14:38;;;;;;;5.03;2.00;;;;;;;5.35;78.24;96104.72;6074610;23;20680;-83
2023/02/02 08:17:05;;;;;;;2.67;1.80;;;;;;;5.39;78.63;96111.16;6075262;23;20177;-82
2023/02/02 08:19:31;;;;;;;4.40;1.70;;;;;;;5.37;78.37;96116.44;6059612;23;20363;-83
2023/02/02 08:21:57;;;;;;;3.77;1.80;;;;;;;5.41;78.08;96116.94;6075107;23;20205;-82
2023/02/02 08:24:24;;;;;;;4.90;2.13;;;;;;;5.38;78.06;96133.38;6074200;23;20219;-83
2023/02/02 08:26:52;;;;;;;3.17;1.80;;;;;;;5.46;77.98;96140.34;6074836;23;20513;-83
2023/02/02 08:29:18;;;;;;;3.73;2.20;;;;;;;5.43;78.32;96136.31;6060569;23;20418;-83
2023/02/02 08:31:45;;;;;;;4.93;2.13;;;;;;;5.40;78.90;96141.69;6073419;23;20209;-82
2023/02/02 08:34:12;;;;;;;9.10;4.17;;;;;;;5.36;79.38;96132.69;6075293;23;20219;-83
2023/02/02 08:36:39;;;;;;;4.10;2.00;;;;;;;5.45;79.07;96139.53;6076314;23;20205;-81
2023/02/02 08:39:07;;;;;;;2.63;1.73;;;;;;;5.45;78.90;96137.00;6073855;23;20215;-83
2023/02/02 08:41:35;;;;;;;3.23;2.07;;;;;;;5.58;78.31;96151.28;6072228;23;20260;-82
2023/02/02 08:44:05;;;;;;;3.53;1.90;;;;;;;5.58;78.79;96162.28;6075363;23;20205;-82
2023/02/02 08:46:32;;;;;;;3.90;2.10;;;;;;;5.51;79.29;96151.81;6074746;23;20173;-83
2023/02/02 08:48:58;;;;;;;3.80;1.97;;;;;;;5.51;79.15;96161.19;6075936;23;20212;-83
2023/02/02 08:51:25;;;;;;;3.20;1.73;;;;;;;5.54;79.75;96158.41;6045324;23;20260;-83
2023/02/02 08:53:51;;;;;;;2.80;1.77;;;;;;;5.40;80.14;96151.09;6072138;23;20200;-83
2023/02/02 08:56:21;;;;;;;3.07;1.60;;;;;;;5.49;80.61;96156.22;6076279;23;20180;-82
2023/02/02 08:58:50;;;;;;;3.87;2.10;;;;;;;5.51;80.95;96158.66;6076116;23;20211;-83
2023/02/02 09:01:19;;;;;;;4.20;2.00;;;;;;;5.49;80.98;96161.34;6058743;23;20208;-82
2023/02/02 09:03:46;;;;;;;4.93;1.90;;;;;;;5.44;80.88;96175.44;6075587;23;20205;-83
2023/02/02 09:06:14;;;;;;;3.43;1.90;;;;;;;5.40;81.12;96151.88;6076083;23;20191;-83
2023/02/02 09:08:42;;;;;;;5.33;2.00;;;;;;;5.43;80.93;96161.03;6075592;23;20204;-83
2023/02/02 09:11:10;;;;;;;2.60;1.90;;;;;;;5.42;81.07;96152.56;6074947;23;20205;-82
2023/02/02 09:13:38;;;;;;;4.77;1.70;;;;;;;5.48;81.11;96161.47;6075390;23;20211;-83
2023/02/02 09:16:08;;;;;;;3.57;1.73;;;;;;;5.45;81.06;96170.19;6074818;23;20172;-83
2023/02/02 09:18:36;;;;;;;4.17;1.80;;;;;;;5.44;81.20;96167.75;6073871;23;20208;-83
2023/02/02 09:21:04;;;;;;;5.53;2.20;;;;;;;5.50;80.84;96165.50;6074585;23;20383;-83
2023/02/02 09:23:32;;;;;;;4.83;2.00;;;;;;;5.39;81.12;96167.34;6058766;23;20212;-83
2023/02/02 09:26:09;;;;;;;2.37;1.50;;;;;;;5.34;82.24;96167.75;6073317;23;20192;-83
2023/02/02 09:28:35;;;;;;;1.77;1.47;;;;;;;5.35;81.85;96163.44;6074665;23;20244;-82
2023/02/02 09:31:02;;;;;;;3.20;2.03;;;;;;;5.34;82.24;96174.59;6074115;23;20211;-83
2023/02/02 09:33:29;;;;;;;4.27;2.00;;;;;;;5.27;82.87;96179.41;6074062;23;20215;-82
2023/02/02 09:36:03;;;;;;;9.10;5.47;;;;;;;5.35;82.82;96174.47;6075123;23;20206;-83
2023/02/02 09:38:30;;;;;;;3.90;2.40;;;;;;;5.35;82.99;96168.56;6074710;23;20204;-83
2023/02/02 09:40:56;;;;;;;3.97;2.30;;;;;;;5.36;82.99;96165.06;6074504;23;20692;-83
2023/02/02 09:43:39;;;;;;;3.67;1.97;;;;;;;5.29;83.47;96169.88;6073851;23;20209;-83
2023/02/02 09:46:15;;;;;;;4.67;2.20;;;;;;;5.32;84.13;96167.06;6075590;23;20165;-83
2023/02/02 09:48:49;;;;;;;3.53;1.83;;;;;;;5.37;83.82;96177.72;6073891;23;20268;-83
2023/02/02 09:51:21;;;;;;;4.87;1.90;;;;;;;5.41;84.69;96179.03;6075097;23;20200;-83
2023/02/02 09:53:53;;;;;;;3.67;2.13;;;;;;;5.46;84.96;96178.66;6074083;23;20554;-83
2023/02/02 09:56:24;;;;;;;4.73;2.00;;;;;;;5.49;87.26;96179.22;6073891;23;20180;-81
2023/02/02 09:58:54;;;;;;;2.97;1.83;;;;;;;5.49;86.08;96184.31;6072395;23;20205;-83
2023/02/02 10:01:24;;;;;;;4.03;2.03;;;;;;;5.37;85.17;96182.81;6073901;23;20699;-83
2023/02/02 10:04:00;;;;;;;3.83;2.20;;;;;;;5.45;85.14;96187.25;6075460;23;20551;-83
2023/02/02 10:06:35;;;;;;;3.73;2.30;;;;;;;5.49;84.72;96194.53;6075430;23;20680;-82
2023/02/02 10:09:12;;;;;;;4.30;1.97;;;;;;;5.49;83.66;96186.88;6074779;23;20264;-83
2023/02/02 10:11:46;;;;;;;2.90;2.10;;;;;;;5.44;83.91;96183.91;6074117;23;20200;-83
2023/02/02 10:14:22;;;;;;;4.30;1.80;;;;;;;5.45;83.59;96179.59;6074860;23;20219;-82
2023/02/02 10:16:52;;;;;;;3.53;1.90;;;;;;;5.46;83.28;96183.75;6060130;23;20212;-82
2023/02/02 10:19:19;;;;;;;3.63;1.80;;;;;;;5.60;82.38;96177.47;6074216;23;20212;-83
2023/02/02 10:21:54;;;;;;;4.60;2.13;;;;;;;5.66;82.38;96182.06;6073334;23;20201;-83
2023/02/02 10:24:24;;;;;;;4.57;1.70;;;;;;;5.63;82.09;96185.69;6073903;23;20231;-83
2023/02/02 10:26:53;;;;;;;3.87;2.00;;;;;;;5.55;82.14;96177.88;6073997;23;20176;-83
2023/02/02 10:29:32;;;;;;;2.77;1.80;;;;;;;5.50;82.01;96168.06;6073685;23;20217;-83
2023/02/02 10:32:09;;;;;;;4.17;2.20;;;;;;;5.50;81.84;96173.16;6072967;23;20339;-83
2023/02/02 10:34:41;;;;;;;2.70;1.97;;;;;;;5.55;81.79;96168.47;6073465;23;20213;-83
2023/02/02 10:37:21;;;;;;;4.57;1.90;;;;;;;5.53;81.50;96182.31;6073756;23;20680;-83
2023/02/02 10:40:02;;;;;;;3.07;2.00;;;;;;;5.64;80.95;96183.94;6073419;23;20208;-83
2023/02/02 10:42:39;;;;;;;2.57;1.77;;;;;;;5.69;80.67;96174.97;6072882;23;20189;-84
2023/02/02 10:45:14;;;;;;;4.70;1.90;;;;;;;5.57;81.06;96172.66;6073439;23;20173;-83
2023/02/02 10:47:40;;;;;;;6.57;2.10;;;;;;;5.58;81.26;96181.94;6072263;23;20165;-83
2023/02/02 10:50:17;;;;;;;7.43;2.10;;;;;;;5.66;80.89;96176.97;6072982;23;20200;-83
2023/02/02 10:52:48;;;;;;;3.43;2.30;;;;;;;5.67;80.51;96168.34;6071339;23;20168;-83
2023/02/02 10:55:22;;;;;;;6.43;2.50;;;;;;;5.68;81.08;96163.13;6072299;23;20194;-82
2023/02/02 10:57:58;;;;;;;4.40;2.07;;;;;;;5.71;80.68;96164.59;6071891;23;20231;-83
2023/02/02 11:00:31;;;;;;;3.17;1.90;;;;;;;5.62;80.87;96155.16;6056805;23;20212;-83
2023/02/02 11:03:03;;;;;;;3.40;2.03;;;;;;;5.60;80.74;96168.06;6070722;23;20644;-83
2023/02/02 11:08:17;;;;;;;2.27;1.90;;;;;;;5.70;80.53;96170.66;6071212;23;20458;-83
2023/02/02 11:10:45;;;;;;;2.37;1.80;;;;;;;5.74;80.72;96159.25;6070981;23;20201;-83
2023/02/02 11:13:17;;;;;;;6.07;2.17;;;;;;;5.73;80.59;96153.31;6070784;23;20200;-83
2023/02/02 11:15:43;;;;;;;2.93;1.90;;;;;;;5.75;80.76;96148.88;6072012;23;20239;-83
2023/02/02 11:18:15;;;;;;;2.47;1.90;;;;;;;5.75;80.66;96131.00;6052188;23;20213;-83
2023/02/02 11:20:41;;;;;;;4.07;1.60;;;;;;;5.68;80.43;96173.34;6070512;23;20197;-83
2023/02/02 11:23:20;;;;;;;2.53;1.57;;;;;;;5.79;80.55;96160.44;6071458;23;20544;-83
2023/02/02 11:25:57;;;;;;;2.10;1.50;;;;;;;5.83;79.88;96148.22;6073482;23;20168;-83
2023/02/02 11:28:29;;;;;;;3.33;1.80;;;;;;;5.93;79.84;96166.97;6072666;23;20276;-83
2023/02/02 11:30:56;;;;;;;3.00;1.60;;;;;;;5.91;79.30;96180.81;6072650;23;20208;-83
2023/02/02 11:33:28;;;;;;;3.37;1.80;;;;;;;5.89;79.77;96161.28;6071655;23;20209;-83
2023/02/02 11:35:57;;;;;;;5.30;2.90;;;;;;;5.88;80.20;96181.84;6072220;23;20165;-83
2023/02/02 11:38:26;;;;;;;2.77;1.60;;;;;;;5.83;80.72;96178.88;6072025;23;20205;-83
2023/02/02 11:40:59;;;;;;;4.00;1.93;;;;;;;5.88;81.22;96169.06;6070679;23;20749;-83
2023/02/02 11:43:29;;;;;;;1.80;1.40;;;;;;;5.86;81.41;96161.53;6071395;23;20229;-82
2023/02/02 11:45:59;;;;;;;1.37;1.27;;;;;;;5.70;81.84;96168.91;6042115;23;20209;-82
2023/02/02 11:48:29;;;;;;;3.33;1.43;;;;;;;5.71;82.74;96159.50;6072020;23;20209;-83
2023/02/02 11:50:58;;;;;;;3.43;1.67;;;;;;;5.75;82.53;96178.75;6071450;23;20256;-84
2023/02/02 11:53:29;;;;;;;3.90;1.83;;;;;;;5.84;82.04;96165.97;6070936;23;20534;-83
2023/02/02 11:55:57;;;;;;;3.47;1.53;;;;;;;5.81;82.22;96153.44;6071052;23;20700;-83
2023/02/02 11:58:27;;;;;;;2.80;1.87;;;;;;;5.79;82.08;96154.50;6072011;23;20205;-83
2023/02/02 12:00:56;;;;;;;1.90;1.50;;;;;;;5.84;82.29;96153.19;6074030;23;20197;-82
2023/02/02 12:03:25;;;;;;;2.80;1.50;;;;;;;5.80;82.72;96174.81;6072250;23;20212;-83